createdAt,value
2023-02-02T00:02:00.204Z,101156.06
2023-02-02T00:04:36.101Z,101161.41
2023-02-02T00:07:05.289Z,101161.66
2023-02-02T00:09:32.856Z,101160.41
2023-02-02T00:12:00.469Z,101154.38
2023-02-02T00:14:27.119Z,101149.28
2023-02-02T00:16:55.210Z,101148.41
2023-02-02T00:19:27.624Z,101146.09
2023-02-02T00:21:55.116Z,101149.81
2023-02-02T00:24:22.669Z,101150.03
2023-02-02T00:26:52.063Z,101150.31
2023-02-02T00:29:28.018Z,101142.31
2023-02-02T00:31:54.980Z,101143.03
2023-02-02T00:34:22.293Z,101134.50
2023-02-02T00:36:49.763Z,101133.78
2023-02-02T00:39:19.255Z,101135.56
2023-02-02T00:41:46.586Z,101134.03
2023-02-02T00:44:32.148Z,101130.75
2023-02-02T00:46:58.829Z,101124.47
2023-02-02T00:49:25.544Z,101121.69
2023-02-02T00:51:52.184Z,101118.91
2023-02-02T00:54:18.768Z,101114.44
2023-02-02T00:56:45.370Z,101120.34
2023-02-02T00:59:12.515Z,101117.97
2023-02-02T01:01:39.224Z,101110.91
2023-02-02T01:04:06.160Z,101113.22
2023-02-02T01:06:32.935Z,101105.66
2023-02-02T01:08:59.514Z,101102.91
2023-02-02T01:11:26.094Z,101100.47
2023-02-02T01:13:52.765Z,101109.94
2023-02-02T01:16:22.448Z,101111.75
2023-02-02T01:18:50.059Z,101114.28
2023-02-02T01:21:16.756Z,101109.19
2023-02-02T01:23:43.383Z,101104.41
2023-02-02T01:26:11.630Z,101108.66
2023-02-02T01:28:38.585Z,101107.44
2023-02-02T01:31:08.048Z,101112.44
2023-02-02T01:33:34.700Z,101111.19
2023-02-02T01:36:06.412Z,101113.72
2023-02-02T01:38:33.589Z,101111.34
2023-02-02T01:41:00.656Z,101113.81
2023-02-02T01:43:52.883Z,101120.34
2023-02-02T01:46:27.927Z,101112.81
2023-02-02T01:49:15.706Z,101113.78
2023-02-02T01:51:54.703Z,101111.25
2023-02-02T01:54:35.248Z,101110.53
2023-02-02T01:57:26.186Z,101115.19
2023-02-02T01:59:54.816Z,101104.47
2023-02-02T02:02:21.637Z,101121.72
2023-02-02T02:04:50.442Z,101121.56
2023-02-02T02:07:17.065Z,101112.75
2023-02-02T02:09:43.811Z,101109.00
2023-02-02T02:12:14.465Z,101098.09
2023-02-02T02:15:02.458Z,101095.44
2023-02-02T02:17:39.943Z,101098.44
2023-02-02T02:20:37.504Z,101106.84
2023-02-02T02:23:25.390Z,101101.63
2023-02-02T02:26:27.153Z,101102.66
2023-02-02T02:29:35.676Z,101099.34
2023-02-02T02:32:52.545Z,101099.31
2023-02-02T02:35:37.022Z,101102.38
2023-02-02T02:38:12.633Z,101097.81
2023-02-02T02:40:49.587Z,101097.59
2023-02-02T02:43:24.536Z,101104.81
2023-02-02T02:45:51.230Z,101111.31
2023-02-02T02:48:17.774Z,101104.06
2023-02-02T02:50:44.375Z,101103.56
2023-02-02T02:53:24.120Z,101100.28
2023-02-02T02:56:06.783Z,101107.03
2023-02-02T02:58:54.425Z,101103.22
2023-02-02T03:01:37.893Z,101099.16
2023-02-02T03:04:14.579Z,101104.22
2023-02-02T03:07:00.657Z,101095.69
2023-02-02T03:09:32.914Z,101105.22
2023-02-02T03:11:59.912Z,101099.53
2023-02-02T03:14:26.640Z,101101.34
2023-02-02T03:16:53.458Z,101108.38
2023-02-02T03:19:20.181Z,101106.34
2023-02-02T03:21:46.854Z,101110.34
2023-02-02T03:24:13.493Z,101113.28
2023-02-02T03:26:40.179Z,101109.06
2023-02-02T03:29:06.813Z,101104.97
2023-02-02T03:31:33.524Z,101112.47
2023-02-02T03:34:00.141Z,101111.00
2023-02-02T03:36:28.022Z,101101.50
2023-02-02T03:38:54.706Z,101106.78
2023-02-02T03:41:21.556Z,101103.47
2023-02-02T03:43:48.091Z,101106.84
2023-02-02T03:46:15.102Z,101105.84
2023-02-02T03:48:41.688Z,101109.69
2023-02-02T03:51:09.967Z,101103.75
2023-02-02T03:53:36.616Z,101105.56
2023-02-02T03:56:03.266Z,101104.63
2023-02-02T03:58:29.938Z,101112.38
2023-02-02T04:04:20.294Z,101107.19
2023-02-02T04:06:46.876Z,101116.84
2023-02-02T04:09:13.436Z,101122.97
2023-02-02T04:11:40.243Z,101125.50
2023-02-02T04:14:07.236Z,101122.38
2023-02-02T04:16:37.104Z,101126.91
2023-02-02T04:19:06.517Z,101113.47
2023-02-02T04:21:33.068Z,101124.84
2023-02-02T04:23:59.738Z,101115.78
2023-02-02T04:26:26.823Z,101118.50
2023-02-02T04:28:53.809Z,101118.00
2023-02-02T04:31:20.615Z,101120.50
2023-02-02T04:33:47.303Z,101119.59
2023-02-02T04:36:13.871Z,101117.91
2023-02-02T04:38:40.484Z,101126.50
2023-02-02T04:41:13.954Z,101124.38
2023-02-02T04:43:40.629Z,101127.38
2023-02-02T04:46:07.454Z,101127.19
2023-02-02T04:48:34.189Z,101125.91
2023-02-02T04:51:02.203Z,101132.16
2023-02-02T04:53:29.383Z,101130.19
2023-02-02T04:55:56.416Z,101128.97
2023-02-02T04:58:23.037Z,101137.69
2023-02-02T05:00:49.588Z,101135.69
2023-02-02T05:03:16.453Z,101133.31
2023-02-02T05:05:42.952Z,101133.84
2023-02-02T05:08:12.047Z,101136.06
2023-02-02T05:10:42.238Z,101132.75
2023-02-02T05:13:09.527Z,101134.81
2023-02-02T05:15:36.063Z,101135.63
2023-02-02T05:18:02.742Z,101131.31
2023-02-02T05:20:29.231Z,101137.00
2023-02-02T05:22:55.736Z,101135.47
2023-02-02T05:25:22.706Z,101144.38
2023-02-02T05:27:49.369Z,101139.41
2023-02-02T05:30:16.533Z,101141.22
2023-02-02T05:32:43.232Z,101142.28
2023-02-02T05:35:10.157Z,101137.19
2023-02-02T05:37:36.736Z,101147.22
2023-02-02T05:40:04.170Z,101152.41
2023-02-02T05:42:30.766Z,101155.03
2023-02-02T05:44:57.241Z,101149.72
2023-02-02T05:47:23.876Z,101158.25
2023-02-02T05:49:50.475Z,101149.56
2023-02-02T05:52:21.403Z,101158.56
2023-02-02T05:54:48.086Z,101158.31
2023-02-02T05:57:14.588Z,101150.50
2023-02-02T05:59:41.188Z,101155.69
2023-02-02T06:02:07.934Z,101154.91
2023-02-02T06:04:34.483Z,101154.44
2023-02-02T06:07:01.037Z,101155.25
2023-02-02T06:09:27.770Z,101160.06
2023-02-02T06:11:54.314Z,101159.81
2023-02-02T06:14:21.189Z,101150.50
2023-02-02T06:16:47.999Z,101159.66
2023-02-02T06:19:14.564Z,101153.13
2023-02-02T06:21:41.077Z,101152.59
2023-02-02T06:24:07.758Z,101151.09
2023-02-02T06:26:34.278Z,101154.53
2023-02-02T06:29:00.840Z,101154.78
2023-02-02T06:31:27.606Z,101166.34
2023-02-02T06:33:56.432Z,101158.16
2023-02-02T06:36:25.251Z,101159.91
2023-02-02T06:38:53.527Z,101164.75
2023-02-02T06:41:20.574Z,101164.91
2023-02-02T06:43:48.223Z,101170.72
2023-02-02T06:46:15.760Z,101167.69
2023-02-02T06:48:42.992Z,101169.84
2023-02-02T06:51:09.709Z,101171.94
2023-02-02T06:53:36.356Z,101171.09
2023-02-02T06:56:06.243Z,101165.41
2023-02-02T06:58:34.010Z,101175.25
2023-02-02T07:01:10.151Z,101163.44
2023-02-02T07:03:36.833Z,101175.72
2023-02-02T07:06:13.105Z,101175.53
2023-02-02T07:08:39.732Z,101182.59
2023-02-02T07:11:14.155Z,101181.59
2023-02-02T07:13:42.877Z,101170.28
2023-02-02T07:16:15.465Z,101177.06
2023-02-02T07:18:48.348Z,101185.34
2023-02-02T07:21:18.631Z,101186.09
2023-02-02T07:23:45.671Z,101187.34
2023-02-02T07:26:14.280Z,101185.09
2023-02-02T07:28:41.367Z,101196.13
2023-02-02T07:31:21.711Z,101197.41
2023-02-02T07:33:49.396Z,101191.13
2023-02-02T07:36:18.637Z,101190.09
2023-02-02T07:38:47.091Z,101189.88
2023-02-02T07:41:14.925Z,101189.63
2023-02-02T07:43:41.517Z,101192.81
2023-02-02T07:46:10.559Z,101195.06
2023-02-02T07:48:37.512Z,101196.59
2023-02-02T07:51:06.618Z,101200.41
2023-02-02T07:53:34.104Z,101206.13
2023-02-02T07:56:12.469Z,101196.00
2023-02-02T07:58:39.672Z,101198.09
2023-02-02T08:01:08.632Z,101211.59
2023-02-02T08:03:36.220Z,101200.19
2023-02-02T08:06:10.509Z,101203.38
2023-02-02T08:08:37.172Z,101211.34
2023-02-02T08:11:03.788Z,101204.03
2023-02-02T08:13:30.442Z,101210.22
2023-02-02T08:16:00.217Z,101200.97
2023-02-02T08:18:26.787Z,101211.00
2023-02-02T08:20:53.479Z,101204.75
2023-02-02T08:23:23.698Z,101207.38
2023-02-02T08:25:50.977Z,101201.59
2023-02-02T08:28:18.806Z,101212.84
2023-02-02T08:30:46.087Z,101209.38
2023-02-02T08:33:13.009Z,101210.28
2023-02-02T08:35:43.883Z,101208.00
2023-02-02T08:38:10.534Z,101213.59
2023-02-02T08:40:37.115Z,101215.53
2023-02-02T08:43:04.173Z,101218.09
2023-02-02T08:46:03.817Z,101219.78
2023-02-02T08:48:19.914Z,101229.00
2023-02-02T08:50:55.866Z,101229.31
2023-02-02T08:53:23.560Z,101235.44
2023-02-02T08:56:01.348Z,101234.75
2023-02-02T08:58:28.707Z,101241.34
2023-02-02T09:00:55.374Z,101238.41
2023-02-02T09:03:21.931Z,101242.19
2023-02-02T09:05:48.617Z,101248.53
2023-02-02T09:08:15.257Z,101241.19
2023-02-02T09:10:41.805Z,101246.78
2023-02-02T09:13:08.458Z,101252.78
2023-02-02T09:15:35.182Z,101249.44
2023-02-02T09:18:01.706Z,101243.06
2023-02-02T09:20:28.277Z,101257.78
2023-02-02T09:22:57.720Z,101252.91
2023-02-02T09:25:28.401Z,101258.25
2023-02-02T09:27:54.980Z,101264.63
2023-02-02T09:30:21.819Z,101269.72
2023-02-02T09:32:51.285Z,101265.88
2023-02-02T09:35:18.011Z,101262.75
2023-02-02T09:37:45.460Z,101262.66
2023-02-02T09:40:19.362Z,101259.47
2023-02-02T09:43:01.465Z,101253.25
2023-02-02T09:45:39.254Z,101253.25
2023-02-02T09:48:19.389Z,101264.44
2023-02-02T09:50:51.076Z,101263.63
2023-02-02T09:53:29.242Z,101269.22
2023-02-02T09:56:00.512Z,101265.75
2023-02-02T09:58:39.892Z,101269.91
2023-02-02T10:01:11.260Z,101277.69
2023-02-02T10:03:43.972Z,101278.81
2023-02-02T10:06:16.316Z,101281.88
2023-02-02T10:08:49.070Z,101282.19
2023-02-02T10:11:24.817Z,101290.22
2023-02-02T10:13:56.426Z,101291.44
2023-02-02T10:16:24.840Z,101293.44
2023-02-02T10:19:04.779Z,101292.75
2023-02-02T10:21:46.322Z,101295.84
2023-02-02T10:24:23.093Z,101301.53
2023-02-02T10:26:55.638Z,101298.50
2023-02-02T10:29:22.226Z,101296.75
2023-02-02T10:31:48.914Z,101297.13
2023-02-02T10:34:18.282Z,101297.09
2023-02-02T10:36:55.018Z,101296.97
2023-02-02T10:39:41.822Z,101290.22
2023-02-02T10:42:30.219Z,101286.03
2023-02-02T10:45:04.085Z,101284.22
2023-02-02T10:47:33.766Z,101275.00
2023-02-02T10:50:19.061Z,101274.88
2023-02-02T10:52:50.316Z,101273.59
2023-02-02T10:55:35.735Z,101276.53
2023-02-02T10:58:11.321Z,101272.41
2023-02-02T11:00:51.418Z,101267.97
2023-02-02T11:03:21.239Z,101270.34
2023-02-02T11:06:06.675Z,101276.41
2023-02-02T11:08:35.067Z,101270.94
2023-02-02T11:11:19.642Z,101264.19
2023-02-02T11:14:10.000Z,101273.50
2023-02-02T11:16:43.788Z,101271.00
2023-02-02T11:19:17.178Z,101271.66
2023-02-02T11:22:01.487Z,101263.22
2023-02-02T11:24:36.824Z,101264.72
2023-02-02T11:27:08.409Z,101256.38
2023-02-02T11:29:48.973Z,101258.34
2023-02-02T11:32:34.344Z,101268.97
2023-02-02T11:35:04.148Z,101261.16
2023-02-02T11:37:35.861Z,101260.56
2023-02-02T11:40:24.914Z,101261.78
2023-02-02T11:42:53.011Z,101258.53
2023-02-02T11:45:29.311Z,101264.94
2023-02-02T11:48:01.643Z,101265.91
2023-02-02T11:50:28.890Z,101273.41
2023-02-02T11:52:56.001Z,101270.25
2023-02-02T11:55:27.755Z,101268.06
2023-02-02T11:58:20.181Z,101267.03
2023-02-02T12:00:48.752Z,101266.94
2023-02-02T12:03:33.652Z,101262.19
2023-02-02T12:06:02.139Z,101263.41
2023-02-02T12:08:29.675Z,101250.69
2023-02-02T12:11:00.144Z,101252.34
2023-02-02T12:13:26.598Z,101267.25
2023-02-02T12:16:15.001Z,101258.09
2023-02-02T12:19:19.396Z,101253.22
2023-02-02T12:22:02.955Z,101255.59
2023-02-02T12:24:36.240Z,101245.78
2023-02-02T12:27:11.874Z,101253.38
2023-02-02T12:29:57.331Z,101247.91
2023-02-02T12:32:47.427Z,101250.91
2023-02-02T12:35:48.254Z,101258.34
2023-02-02T12:38:43.578Z,101259.03
2023-02-02T12:42:11.444Z,101244.13
2023-02-02T12:44:54.513Z,101239.22
2023-02-02T12:47:58.340Z,101235.84
2023-02-02T12:50:41.277Z,101237.75
2023-02-02T12:53:17.120Z,101230.81
2023-02-02T12:56:33.053Z,101232.41
2023-02-02T12:59:47.141Z,101237.09
2023-02-02T13:02:25.988Z,101233.47
2023-02-02T13:07:51.505Z,101225.59
2023-02-02T13:10:30.676Z,101225.91
2023-02-02T13:13:01.561Z,101221.31
2023-02-02T13:15:37.312Z,101225.78
2023-02-02T13:18:14.109Z,101230.63
2023-02-02T13:20:52.931Z,101241.13
2023-02-02T13:23:27.525Z,101230.59
2023-02-02T13:26:01.370Z,101232.38
2023-02-02T13:28:43.504Z,101225.97
2023-02-02T13:31:19.877Z,101222.94
2023-02-02T13:33:53.278Z,101224.66
2023-02-02T13:36:28.559Z,101215.53
2023-02-02T13:38:58.571Z,101214.56
2023-02-02T13:41:26.302Z,101220.09
2023-02-02T13:44:03.998Z,101226.81
2023-02-02T13:46:43.284Z,101228.78
2023-02-02T13:49:21.998Z,101229.75
2023-02-02T13:52:27.093Z,101227.38
2023-02-02T13:55:12.438Z,101233.06
2023-02-02T13:57:38.958Z,101236.38
2023-02-02T14:00:19.255Z,101231.03
2023-02-02T14:02:56.661Z,101234.75
2023-02-02T14:05:43.585Z,101234.94
2023-02-02T14:08:20.487Z,101242.97
2023-02-02T14:10:52.977Z,101247.59
2023-02-02T14:13:41.268Z,101248.31
2023-02-02T14:16:20.563Z,101247.66
2023-02-02T14:18:50.195Z,101251.19
2023-02-02T14:21:32.478Z,101253.72
2023-02-02T14:24:05.172Z,101247.91
2023-02-02T14:26:50.418Z,101255.69
2023-02-02T14:29:32.382Z,101248.09
2023-02-02T14:32:21.618Z,101253.75
2023-02-02T14:34:49.315Z,101256.56
2023-02-02T14:37:25.453Z,101266.66
2023-02-02T14:40:07.344Z,101264.69
2023-02-02T14:43:01.790Z,101274.81
2023-02-02T14:45:29.966Z,101275.16
2023-02-02T14:48:01.905Z,101278.06
2023-02-02T14:50:32.894Z,101278.97
2023-02-02T14:53:06.832Z,101285.28
2023-02-02T14:55:36.899Z,101282.09
2023-02-02T14:58:06.480Z,101286.91
2023-02-02T15:00:35.238Z,101288.41
2023-02-02T15:03:46.993Z,101296.84
2023-02-02T15:06:32.152Z,101295.50
2023-02-02T15:09:21.016Z,101292.75
2023-02-02T15:12:02.748Z,101284.94
2023-02-02T15:14:51.681Z,101292.00
2023-02-02T15:17:20.225Z,101285.94
2023-02-02T15:20:10.256Z,101283.34
2023-02-02T15:22:58.260Z,101283.63
2023-02-02T15:25:31.142Z,101282.25
2023-02-02T15:28:11.295Z,101285.88
2023-02-02T15:30:44.029Z,101286.84
2023-02-02T15:33:42.186Z,101290.09
2023-02-02T15:36:25.755Z,101296.31
2023-02-02T15:38:53.428Z,101300.06
2023-02-02T15:41:22.272Z,101294.81
2023-02-02T15:43:48.924Z,101289.16
2023-02-02T15:46:24.380Z,101295.13
2023-02-02T15:49:33.187Z,101290.72
2023-02-02T15:52:23.080Z,101292.41
2023-02-02T15:54:58.189Z,101298.88
2023-02-02T15:57:29.794Z,101296.91
2023-02-02T15:59:57.022Z,101286.19
2023-02-02T16:02:41.079Z,101288.28
2023-02-02T16:05:47.547Z,101283.25
2023-02-02T16:08:19.554Z,101283.91
2023-02-02T16:10:49.381Z,101292.09
2023-02-02T16:13:28.102Z,101298.66
2023-02-02T16:16:00.415Z,101300.06
2023-02-02T16:18:27.028Z,101301.53
2023-02-02T16:20:54.669Z,101294.63
2023-02-02T16:23:34.484Z,101307.31
2023-02-02T16:26:03.194Z,101303.88
2023-02-02T16:28:29.971Z,101296.00
2023-02-02T16:31:00.030Z,101294.19
2023-02-02T16:33:33.356Z,101300.66
2023-02-02T16:35:59.908Z,101302.63
2023-02-02T16:38:33.791Z,101310.88
2023-02-02T16:41:03.443Z,101307.84
2023-02-02T16:43:30.459Z,101312.50
2023-02-02T16:46:00.324Z,101312.50
2023-02-02T16:48:32.845Z,101315.94
2023-02-02T16:51:17.871Z,101323.94
2023-02-02T16:53:47.482Z,101322.72
2023-02-02T16:56:40.312Z,101328.75
2023-02-02T16:59:19.261Z,101336.50
2023-02-02T17:01:50.035Z,101335.75
2023-02-02T17:04:28.203Z,101345.34
2023-02-02T17:06:58.160Z,101352.47
2023-02-02T17:09:40.878Z,101351.78
2023-02-02T17:12:32.128Z,101359.94
2023-02-02T17:15:05.771Z,101359.69
2023-02-02T17:17:32.336Z,101355.94
2023-02-02T17:19:58.916Z,101369.34
2023-02-02T17:22:27.895Z,101367.84
2023-02-02T17:24:54.675Z,101374.94
2023-02-02T17:27:34.268Z,101380.78
2023-02-02T17:30:04.762Z,101376.06
2023-02-02T17:32:31.256Z,101383.09
2023-02-02T17:34:57.889Z,101386.13
2023-02-02T17:37:24.666Z,101390.16
2023-02-02T17:39:51.469Z,101387.44
2023-02-02T17:42:28.492Z,101381.88
2023-02-02T17:44:54.982Z,101382.78
2023-02-02T17:47:21.531Z,101389.94
2023-02-02T17:49:48.319Z,101378.91
2023-02-02T17:52:14.810Z,101376.50
2023-02-02T17:54:41.286Z,101372.81
2023-02-02T17:57:07.895Z,101380.34
2023-02-02T17:59:34.386Z,101376.50
2023-02-02T18:02:01.667Z,101372.06
2023-02-02T18:04:28.694Z,101366.88
2023-02-02T18:06:55.211Z,101374.25
2023-02-02T18:09:21.700Z,101375.78
2023-02-02T18:11:49.903Z,101368.63
2023-02-02T18:14:16.477Z,101373.84
2023-02-02T18:16:43.010Z,101373.81
2023-02-02T18:19:10.504Z,101363.44
2023-02-02T18:21:37.547Z,101371.19
2023-02-02T18:24:04.456Z,101374.13
2023-02-02T18:26:32.730Z,101371.84
2023-02-02T18:28:59.525Z,101377.78
2023-02-02T18:31:27.073Z,101373.09
2023-02-02T18:33:54.541Z,101375.38
2023-02-02T18:36:23.587Z,101384.59
2023-02-02T18:38:51.378Z,101381.84
2023-02-02T18:41:19.519Z,101384.66
2023-02-02T18:43:46.005Z,101385.59
2023-02-02T18:46:15.059Z,101387.38
2023-02-02T18:48:42.560Z,101384.72
2023-02-02T18:51:16.036Z,101377.59
2023-02-02T18:53:44.127Z,101387.50
2023-02-02T18:56:12.422Z,101377.34
2023-02-02T18:58:39.843Z,101381.50
2023-02-02T19:01:08.497Z,101396.13
2023-02-02T19:03:36.696Z,101389.41
2023-02-02T19:06:23.541Z,101391.78
2023-02-02T19:08:50.195Z,101394.44
2023-02-02T19:11:22.785Z,101394.66
2023-02-02T19:13:49.715Z,101398.44
2023-02-02T19:16:26.569Z,101392.31
2023-02-02T19:19:17.372Z,101391.22
2023-02-02T19:21:44.016Z,101392.56
2023-02-02T19:24:14.051Z,101392.38
2023-02-02T19:26:45.422Z,101401.22
2023-02-02T19:29:23.325Z,101395.94
2023-02-02T19:32:03.094Z,101399.03
2023-02-02T19:34:29.924Z,101397.00
2023-02-02T19:36:56.457Z,101402.41
2023-02-02T19:39:29.255Z,101395.59
2023-02-02T19:41:59.188Z,101400.13
2023-02-02T19:44:31.012Z,101407.19
2023-02-02T19:46:57.897Z,101411.72
2023-02-02T19:49:32.192Z,101405.34
2023-02-02T19:51:59.687Z,101406.94
2023-02-02T19:54:39.336Z,101416.75
2023-02-02T19:57:25.425Z,101417.50
2023-02-02T19:59:52.965Z,101416.59
2023-02-02T20:02:38.662Z,101416.47
2023-02-02T20:05:11.365Z,101414.44
2023-02-02T20:07:39.114Z,101420.38
2023-02-02T20:10:19.425Z,101412.16
2023-02-02T20:12:46.296Z,101418.47
2023-02-02T20:15:33.032Z,101414.00
2023-02-02T20:18:01.751Z,101422.44
2023-02-02T20:20:53.141Z,101423.84
2023-02-02T20:23:49.008Z,101414.56
2023-02-02T20:26:48.384Z,101421.91
2023-02-02T20:29:17.524Z,101423.84
2023-02-02T20:31:45.462Z,101425.63
2023-02-02T20:34:30.568Z,101427.16
2023-02-02T20:37:22.805Z,101426.34
2023-02-02T20:40:00.276Z,101438.16
2023-02-02T20:42:27.216Z,101429.06
2023-02-02T20:44:54.237Z,101433.84
2023-02-02T20:47:21.443Z,101426.28
2023-02-02T20:49:48.388Z,101438.19
2023-02-02T20:52:24.210Z,101433.47
2023-02-02T20:54:52.229Z,101433.47
2023-02-02T20:57:19.184Z,101437.91
2023-02-02T20:59:45.919Z,101436.00
2023-02-02T21:02:18.965Z,101440.78
2023-02-02T21:04:49.833Z,101442.81
2023-02-02T21:07:18.695Z,101443.44
2023-02-02T21:09:46.212Z,101440.75
2023-02-02T21:12:13.335Z,101434.16
2023-02-02T21:14:40.065Z,101445.75
2023-02-02T21:17:14.889Z,101442.88
2023-02-02T21:19:42.778Z,101446.59
2023-02-02T21:22:09.277Z,101437.69
2023-02-02T21:24:35.773Z,101441.47
2023-02-02T21:27:04.601Z,101439.72
2023-02-02T21:29:32.644Z,101440.03
2023-02-02T21:32:02.462Z,101437.00
2023-02-02T21:34:30.263Z,101440.03
2023-02-02T21:36:58.217Z,101445.41
2023-02-02T21:39:36.650Z,101450.66
2023-02-02T21:42:09.063Z,101452.59
2023-02-02T21:44:37.795Z,101438.25
2023-02-02T21:47:30.867Z,101444.44
2023-02-02T21:50:01.390Z,101447.53
2023-02-02T21:52:33.787Z,101445.56
2023-02-02T21:55:06.477Z,101452.63
2023-02-02T21:57:37.193Z,101448.13
2023-02-02T22:00:32.533Z,101453.78
2023-02-02T22:02:59.944Z,101457.25
2023-02-02T22:05:34.044Z,101446.13
2023-02-02T22:08:01.697Z,101448.31
2023-02-02T22:10:38.940Z,101459.13
2023-02-02T22:13:13.881Z,101455.66
2023-02-02T22:15:41.809Z,101465.28
2023-02-02T22:18:23.044Z,101453.06
2023-02-02T22:20:51.364Z,101466.41
2023-02-02T22:23:20.578Z,101467.69
2023-02-02T22:25:49.803Z,101471.66
2023-02-02T22:28:29.745Z,101474.97
2023-02-02T22:30:56.837Z,101476.72
2023-02-02T22:33:23.570Z,101471.41
2023-02-02T22:35:50.904Z,101475.44
2023-02-02T22:38:19.678Z,101467.63
2023-02-02T22:40:47.426Z,101475.97
2023-02-02T22:43:16.295Z,101478.69
2023-02-02T22:45:43.652Z,101482.34
2023-02-02T22:48:11.443Z,101477.38
2023-02-02T22:50:38.102Z,101471.69
2023-02-02T22:53:05.080Z,101479.47
2023-02-02T22:55:32.429Z,101481.00
2023-02-02T22:57:59.052Z,101473.94
2023-02-02T23:00:28.254Z,101481.53
2023-02-02T23:02:55.983Z,101488.72
2023-02-02T23:05:23.949Z,101488.34
2023-02-02T23:07:50.978Z,101490.59
2023-02-02T23:10:20.369Z,101488.34
2023-02-02T23:12:47.164Z,101493.84
2023-02-02T23:15:14.440Z,101495.94
2023-02-02T23:17:41.573Z,101493.66
2023-02-02T23:20:10.868Z,101501.56
2023-02-02T23:22:37.417Z,101501.69
2023-02-02T23:25:04.669Z,101515.56
2023-02-02T23:27:31.409Z,101510.72
2023-02-02T23:29:57.911Z,101510.97
2023-02-02T23:32:24.568Z,101511.41
2023-02-02T23:34:51.217Z,101513.00
2023-02-02T23:37:17.870Z,101502.53
2023-02-02T23:39:44.566Z,101512.69
2023-02-02T23:42:11.216Z,101516.53
2023-02-02T23:44:37.713Z,101519.53
2023-02-02T23:47:04.867Z,101526.44
2023-02-02T23:49:32.935Z,101522.34
2023-02-02T23:51:59.790Z,101522.34
2023-02-02T23:54:27.031Z,101516.94
2023-02-02T23:56:53.669Z,101521.38
2023-02-02T23:59:20.154Z,101520.38
